sensor_id;sensor_type;location;lat;lon;timestamp;P1;durP1;ratioP1;P2;durP2;ratioP2
26502;SDS011;14177;51.520;6.764;2023-05-16T00:02:24;2.15;;;1.30;;
26502;SDS011;14177;51.520;6.764;2023-05-16T00:04:51;2.58;;;1.30;;
26502;SDS011;14177;51.520;6.764;2023-05-16T00:07:18;4.15;;;1.42;;
26502;SDS011;14177;51.520;6.764;2023-05-16T00:09:45;6.90;;;1.20;;
26502;SDS011;14177;51.520;6.764;2023-05-16T00:12:12;2.55;;;1.00;;
26502;SDS011;14177;51.520;6.764;2023-05-16T00:14:42;7.10;;;1.30;;
26502;SDS011;14177;51.520;6.764;2023-05-16T00:17:09;4.50;;;1.40;;
26502;SDS011;14177;51.520;6.764;2023-05-16T00:19:37;3.45;;;0.93;;
26502;SDS011;14177;51.520;6.764;2023-05-16T00:22:04;5.80;;;1.63;;
26502;SDS011;14177;51.520;6.764;2023-05-16T00:24:32;6.00;;;1.67;;
26502;SDS011;14177;51.520;6.764;2023-05-16T00:27:00;5.47;;;1.55;;
26502;SDS011;14177;51.520;6.764;2023-05-16T00:29:26;6.00;;;1.60;;
26502;SDS011;14177;51.520;6.764;2023-05-16T00:31:53;3.63;;;1.60;;
26502;SDS011;14177;51.520;6.764;2023-05-16T00:34:21;5.75;;;1.77;;
26502;SDS011;14177;51.520;6.764;2023-05-16T00:36:51;8.77;;;1.85;;
26502;SDS011;14177;51.520;6.764;2023-05-16T00:39:19;8.48;;;1.60;;
26502;SDS011;14177;51.520;6.764;2023-05-16T00:41:46;5.88;;;1.52;;
26502;SDS011;14177;51.520;6.764;2023-05-16T00:44:13;4.28;;;1.55;;
26502;SDS011;14177;51.520;6.764;2023-05-16T00:46:41;5.13;;;1.60;;
26502;SDS011;14177;51.520;6.764;2023-05-16T00:49:09;6.40;;;1.60;;
26502;SDS011;14177;51.520;6.764;2023-05-16T00:51:37;5.07;;;1.42;;
26502;SDS011;14177;51.520;6.764;2023-05-16T00:54:05;5.07;;;1.77;;
26502;SDS011;14177;51.520;6.764;2023-05-16T00:56:32;6.68;;;1.92;;
26502;SDS011;14177;51.520;6.764;2023-05-16T00:59:00;7.82;;;1.52;;
26502;SDS011;14177;51.520;6.764;2023-05-16T01:01:27;9.68;;;1.70;;
26502;SDS011;14177;51.520;6.764;2023-05-16T01:03:55;6.93;;;1.90;;
26502;SDS011;14177;51.520;6.764;2023-05-16T01:06:22;4.28;;;1.88;;
26502;SDS011;14177;51.520;6.764;2023-05-16T01:08:49;8.13;;;2.25;;
26502;SDS011;14177;51.520;6.764;2023-05-16T01:11:26;5.57;;;2.17;;
26502;SDS011;14177;51.520;6.764;2023-05-16T01:14:18;6.20;;;1.90;;
26502;SDS011;14177;51.520;6.764;2023-05-16T01:17:06;7.65;;;2.10;;
26502;SDS011;14177;51.520;6.764;2023-05-16T01:20:11;9.73;;;2.10;;
26502;SDS011;14177;51.520;6.764;2023-05-16T01:25:56;6.50;;;1.70;;
26502;SDS011;14177;51.520;6.764;2023-05-16T01:28:52;9.70;;;2.45;;
26502;SDS011;14177;51.520;6.764;2023-05-16T01:31:21;6.00;;;2.10;;
26502;SDS011;14177;51.520;6.764;2023-05-16T01:33:49;8.57;;;2.35;;
26502;SDS011;14177;51.520;6.764;2023-05-16T01:36:23;8.90;;;2.03;;
26502;SDS011;14177;51.520;6.764;2023-05-16T01:41:54;9.50;;;2.10;;
26502;SDS011;14177;51.520;6.764;2023-05-16T01:44:43;9.43;;;2.10;;
26502;SDS011;14177;51.520;6.764;2023-05-16T01:47:32;8.55;;;2.13;;
26502;SDS011;14177;51.520;6.764;2023-05-16T01:50:09;12.23;;;2.15;;
26502;SDS011;14177;51.520;6.764;2023-05-16T01:52:49;11.35;;;2.50;;
26502;SDS011;14177;51.520;6.764;2023-05-16T01:55:46;10.95;;;1.80;;
26502;SDS011;14177;51.520;6.764;2023-05-16T01:58:20;4.35;;;1.83;;
26502;SDS011;14177;51.520;6.764;2023-05-16T02:00:52;15.33;;;2.03;;
26502;SDS011;14177;51.520;6.764;2023-05-16T02:03:21;13.40;;;2.50;;
26502;SDS011;14177;51.520;6.764;2023-05-16T02:05:57;12.65;;;1.95;;
26502;SDS011;14177;51.520;6.764;2023-05-16T02:08:35;11.80;;;2.33;;
26502;SDS011;14177;51.520;6.764;2023-05-16T02:11:29;10.25;;;2.08;;
26502;SDS011;14177;51.520;6.764;2023-05-16T02:14:12;8.32;;;2.13;;
26502;SDS011;14177;51.520;6.764;2023-05-16T02:16:51;15.77;;;2.75;;
26502;SDS011;14177;51.520;6.764;2023-05-16T02:20:15;10.45;;;2.65;;
26502;SDS011;14177;51.520;6.764;2023-05-16T02:23:00;11.87;;;1.97;;
26502;SDS011;14177;51.520;6.764;2023-05-16T02:25:47;17.15;;;2.28;;
26502;SDS011;14177;51.520;6.764;2023-05-16T02:28:24;11.02;;;3.03;;
26502;SDS011;14177;51.520;6.764;2023-05-16T02:49:17;16.77;;;2.58;;
26502;SDS011;14177;51.520;6.764;2023-05-16T03:06:34;18.75;;;2.80;;
26502;SDS011;14177;51.520;6.764;2023-05-16T03:15:31;10.50;;;2.15;;
26502;SDS011;14177;51.520;6.764;2023-05-16T03:23:44;13.38;;;2.70;;
26502;SDS011;14177;51.520;6.764;2023-05-16T03:26:46;12.38;;;2.63;;
26502;SDS011;14177;51.520;6.764;2023-05-16T03:29:37;14.70;;;2.78;;
26502;SDS011;14177;51.520;6.764;2023-05-16T03:41:11;18.00;;;3.25;;
26502;SDS011;14177;51.520;6.764;2023-05-16T03:43:38;10.15;;;1.98;;
26502;SDS011;14177;51.520;6.764;2023-05-16T03:46:05;14.93;;;2.42;;
26502;SDS011;14177;51.520;6.764;2023-05-16T03:48:32;10.05;;;1.85;;
26502;SDS011;14177;51.520;6.764;2023-05-16T03:50:59;10.05;;;2.28;;
26502;SDS011;14177;51.520;6.764;2023-05-16T03:53:26;14.05;;;2.78;;
26502;SDS011;14177;51.520;6.764;2023-05-16T03:55:52;15.88;;;2.60;;
26502;SDS011;14177;51.520;6.764;2023-05-16T03:58:19;13.13;;;2.00;;
26502;SDS011;14177;51.520;6.764;2023-05-16T04:00:46;15.27;;;3.25;;
26502;SDS011;14177;51.520;6.764;2023-05-16T04:03:14;15.98;;;2.42;;
26502;SDS011;14177;51.520;6.764;2023-05-16T04:05:41;8.90;;;2.13;;
26502;SDS011;14177;51.520;6.764;2023-05-16T04:08:08;10.45;;;2.15;;
26502;SDS011;14177;51.520;6.764;2023-05-16T04:10:35;14.15;;;2.30;;
26502;SDS011;14177;51.520;6.764;2023-05-16T04:13:03;12.15;;;1.58;;
26502;SDS011;14177;51.520;6.764;2023-05-16T04:15:30;15.23;;;2.30;;
26502;SDS011;14177;51.520;6.764;2023-05-16T04:17:57;11.32;;;2.30;;
26502;SDS011;14177;51.520;6.764;2023-05-16T04:20:24;13.02;;;1.90;;
26502;SDS011;14177;51.520;6.764;2023-05-16T04:22:51;7.72;;;1.80;;
26502;SDS011;14177;51.520;6.764;2023-05-16T04:25:19;11.60;;;2.50;;
26502;SDS011;14177;51.520;6.764;2023-05-16T04:27:46;15.82;;;2.40;;
26502;SDS011;14177;51.520;6.764;2023-05-16T04:30:14;13.65;;;2.28;;
26502;SDS011;14177;51.520;6.764;2023-05-16T04:32:41;16.42;;;2.03;;
26502;SDS011;14177;51.520;6.764;2023-05-16T04:35:09;17.13;;;2.40;;
26502;SDS011;14177;51.520;6.764;2023-05-16T04:37:36;9.25;;;1.85;;
26502;SDS011;14177;51.520;6.764;2023-05-16T04:40:03;15.38;;;2.35;;
26502;SDS011;14177;51.520;6.764;2023-05-16T04:42:33;11.02;;;1.90;;
26502;SDS011;14177;51.520;6.764;2023-05-16T04:45:00;10.70;;;2.00;;
26502;SDS011;14177;51.520;6.764;2023-05-16T04:47:28;8.93;;;1.88;;
26502;SDS011;14177;51.520;6.764;2023-05-16T04:49:56;12.65;;;2.35;;
26502;SDS011;14177;51.520;6.764;2023-05-16T04:52:23;8.48;;;2.00;;
26502;SDS011;14177;51.520;6.764;2023-05-16T04:54:50;12.75;;;1.92;;
26502;SDS011;14177;51.520;6.764;2023-05-16T04:57:19;14.15;;;1.90;;
26502;SDS011;14177;51.520;6.764;2023-05-16T04:59:46;7.97;;;1.70;;
26502;SDS011;14177;51.520;6.764;2023-05-16T05:02:13;8.90;;;1.70;;
26502;SDS011;14177;51.520;6.764;2023-05-16T05:04:41;13.98;;;2.17;;
26502;SDS011;14177;51.520;6.764;2023-05-16T05:07:08;8.73;;;1.92;;
26502;SDS011;14177;51.520;6.764;2023-05-16T05:09:37;8.82;;;2.10;;
26502;SDS011;14177;51.520;6.764;2023-05-16T05:12:09;8.68;;;1.83;;
26502;SDS011;14177;51.520;6.764;2023-05-16T05:14:36;9.50;;;2.13;;
26502;SDS011;14177;51.520;6.764;2023-05-16T05:17:04;12.85;;;2.35;;
26502;SDS011;14177;51.520;6.764;2023-05-16T05:19:32;14.45;;;2.35;;
26502;SDS011;14177;51.520;6.764;2023-05-16T05:21:59;12.88;;;2.42;;
26502;SDS011;14177;51.520;6.764;2023-05-16T05:24:26;13.35;;;2.60;;
26502;SDS011;14177;51.520;6.764;2023-05-16T05:26:53;10.95;;;2.17;;
26502;SDS011;14177;51.520;6.764;2023-05-16T05:29:21;9.68;;;2.17;;
26502;SDS011;14177;51.520;6.764;2023-05-16T05:31:49;13.02;;;3.10;;
26502;SDS011;14177;51.520;6.764;2023-05-16T05:34:16;10.73;;;2.08;;
26502;SDS011;14177;51.520;6.764;2023-05-16T05:36:43;15.60;;;2.38;;
26502;SDS011;14177;51.520;6.764;2023-05-16T05:39:10;11.02;;;1.55;;
26502;SDS011;14177;51.520;6.764;2023-05-16T05:41:37;15.35;;;2.40;;
26502;SDS011;14177;51.520;6.764;2023-05-16T05:44:05;10.27;;;2.10;;
26502;SDS011;14177;51.520;6.764;2023-05-16T05:46:32;10.30;;;2.38;;
26502;SDS011;14177;51.520;6.764;2023-05-16T05:49:00;13.63;;;2.10;;
26502;SDS011;14177;51.520;6.764;2023-05-16T05:51:27;11.05;;;1.60;;
26502;SDS011;14177;51.520;6.764;2023-05-16T05:53:54;12.70;;;2.10;;
26502;SDS011;14177;51.520;6.764;2023-05-16T05:56:22;11.35;;;2.22;;
26502;SDS011;14177;51.520;6.764;2023-05-16T05:58:50;8.65;;;2.08;;
26502;SDS011;14177;51.520;6.764;2023-05-16T06:01:17;11.43;;;2.00;;
26502;SDS011;14177;51.520;6.764;2023-05-16T06:03:46;4.93;;;1.45;;
26502;SDS011;14177;51.520;6.764;2023-05-16T06:06:13;11.85;;;2.38;;
26502;SDS011;14177;51.520;6.764;2023-05-16T06:08:40;14.15;;;1.77;;
26502;SDS011;14177;51.520;6.764;2023-05-16T06:11:07;11.50;;;2.05;;
26502;SDS011;14177;51.520;6.764;2023-05-16T06:13:34;14.95;;;2.10;;
26502;SDS011;14177;51.520;6.764;2023-05-16T06:16:02;10.68;;;2.10;;
26502;SDS011;14177;51.520;6.764;2023-05-16T06:18:29;9.23;;;1.45;;
26502;SDS011;14177;51.520;6.764;2023-05-16T06:20:56;11.63;;;1.85;;
26502;SDS011;14177;51.520;6.764;2023-05-16T06:23:23;11.10;;;1.67;;
26502;SDS011;14177;51.520;6.764;2023-05-16T06:25:50;13.50;;;2.03;;
26502;SDS011;14177;51.520;6.764;2023-05-16T06:28:17;10.07;;;1.85;;
26502;SDS011;14177;51.520;6.764;2023-05-16T06:30:44;8.20;;;1.70;;
26502;SDS011;14177;51.520;6.764;2023-05-16T06:33:13;11.65;;;1.83;;
26502;SDS011;14177;51.520;6.764;2023-05-16T06:35:41;8.18;;;1.75;;
26502;SDS011;14177;51.520;6.764;2023-05-16T06:38:08;11.55;;;1.77;;
26502;SDS011;14177;51.520;6.764;2023-05-16T06:40:35;12.02;;;1.80;;
26502;SDS011;14177;51.520;6.764;2023-05-16T06:43:02;6.70;;;1.50;;
26502;SDS011;14177;51.520;6.764;2023-05-16T06:45:29;9.88;;;1.50;;
26502;SDS011;14177;51.520;6.764;2023-05-16T06:47:56;8.50;;;1.33;;
26502;SDS011;14177;51.520;6.764;2023-05-16T06:50:23;7.93;;;1.65;;
26502;SDS011;14177;51.520;6.764;2023-05-16T06:52:50;8.48;;;1.75;;
26502;SDS011;14177;51.520;6.764;2023-05-16T06:55:18;15.50;;;1.95;;
26502;SDS011;14177;51.520;6.764;2023-05-16T06:57:57;6.57;;;1.60;;
26502;SDS011;14177;51.520;6.764;2023-05-16T07:00:26;3.85;;;1.20;;
26502;SDS011;14177;51.520;6.764;2023-05-16T07:03:05;11.18;;;1.38;;
26502;SDS011;14177;51.520;6.764;2023-05-16T07:05:45;10.13;;;1.58;;
26502;SDS011;14177;51.520;6.764;2023-05-16T07:08:25;5.88;;;1.52;;
26502;SDS011;14177;51.520;6.764;2023-05-16T07:10:54;10.15;;;1.85;;
26502;SDS011;14177;51.520;6.764;2023-05-16T07:13:40;7.22;;;1.38;;
26502;SDS011;14177;51.520;6.764;2023-05-16T07:16:16;5.93;;;1.30;;
26502;SDS011;14177;51.520;6.764;2023-05-16T07:18:53;7.65;;;1.50;;
26502;SDS011;14177;51.520;6.764;2023-05-16T07:22:08;8.02;;;1.45;;
26502;SDS011;14177;51.520;6.764;2023-05-16T07:24:37;6.60;;;1.52;;
26502;SDS011;14177;51.520;6.764;2023-05-16T07:27:05;8.25;;;1.52;;
26502;SDS011;14177;51.520;6.764;2023-05-16T07:30:18;5.80;;;1.23;;
26502;SDS011;14177;51.520;6.764;2023-05-16T07:32:48;7.55;;;1.48;;
26502;SDS011;14177;51.520;6.764;2023-05-16T07:35:16;5.93;;;1.13;;
26502;SDS011;14177;51.520;6.764;2023-05-16T07:37:45;6.20;;;1.17;;
26502;SDS011;14177;51.520;6.764;2023-05-16T07:40:22;8.07;;;1.25;;
26502;SDS011;14177;51.520;6.764;2023-05-16T07:42:55;6.22;;;1.60;;
26502;SDS011;14177;51.520;6.764;2023-05-16T07:45:24;7.18;;;1.35;;
26502;SDS011;14177;51.520;6.764;2023-05-16T07:48:00;6.88;;;1.10;;
26502;SDS011;14177;51.520;6.764;2023-05-16T07:50:29;5.35;;;1.17;;
26502;SDS011;14177;51.520;6.764;2023-05-16T07:56:01;7.30;;;1.63;;
26502;SDS011;14177;51.520;6.764;2023-05-16T07:58:29;8.90;;;1.48;;
26502;SDS011;14177;51.520;6.764;2023-05-16T08:00:56;6.60;;;1.42;;
26502;SDS011;14177;51.520;6.764;2023-05-16T08:03:23;8.20;;;1.15;;
26502;SDS011;14177;51.520;6.764;2023-05-16T08:05:51;11.77;;;1.20;;
26502;SDS011;14177;51.520;6.764;2023-05-16T08:08:18;2.95;;;0.90;;
26502;SDS011;14177;51.520;6.764;2023-05-16T08:10:46;5.00;;;0.93;;
26502;SDS011;14177;51.520;6.764;2023-05-16T08:13:13;3.42;;;0.95;;
26502;SDS011;14177;51.520;6.764;2023-05-16T08:15:40;5.75;;;1.40;;
26502;SDS011;14177;51.520;6.764;2023-05-16T08:18:12;6.80;;;1.20;;
26502;SDS011;14177;51.520;6.764;2023-05-16T08:20:40;6.00;;;1.27;;
26502;SDS011;14177;51.520;6.764;2023-05-16T08:23:07;3.50;;;1.30;;
26502;SDS011;14177;51.520;6.764;2023-05-16T08:25:35;4.32;;;1.00;;
26502;SDS011;14177;51.520;6.764;2023-05-16T08:28:02;5.47;;;0.98;;
26502;SDS011;14177;51.520;6.764;2023-05-16T08:30:29;4.80;;;1.13;;
26502;SDS011;14177;51.520;6.764;2023-05-16T08:32:57;3.50;;;1.00;;
26502;SDS011;14177;51.520;6.764;2023-05-16T08:35:24;6.15;;;1.23;;
26502;SDS011;14177;51.520;6.764;2023-05-16T08:37:51;4.40;;;0.90;;
26502;SDS011;14177;51.520;6.764;2023-05-16T08:40:18;3.92;;;0.80;;
26502;SDS011;14177;51.520;6.764;2023-05-16T08:42:47;6.30;;;1.17;;
26502;SDS011;14177;51.520;6.764;2023-05-16T08:45:15;5.68;;;0.90;;
26502;SDS011;14177;51.520;6.764;2023-05-16T08:47:42;5.95;;;0.90;;
26502;SDS011;14177;51.520;6.764;2023-05-16T08:50:11;10.07;;;1.27;;
26502;SDS011;14177;51.520;6.764;2023-05-16T08:52:40;8.60;;;1.50;;
26502;SDS011;14177;51.520;6.764;2023-05-16T08:55:09;3.03;;;0.70;;
26502;SDS011;14177;51.520;6.764;2023-05-16T08:57:37;4.35;;;0.82;;
26502;SDS011;14177;51.520;6.764;2023-05-16T09:00:06;5.72;;;1.00;;
26502;SDS011;14177;51.520;6.764;2023-05-16T09:02:41;6.78;;;1.02;;
26502;SDS011;14177;51.520;6.764;2023-05-16T09:05:13;4.33;;;0.90;;
26502;SDS011;14177;51.520;6.764;2023-05-16T09:07:43;7.82;;;1.35;;
26502;SDS011;14177;51.520;6.764;2023-05-16T09:10:11;8.55;;;1.00;;
26502;SDS011;14177;51.520;6.764;2023-05-16T09:12:39;5.75;;;0.70;;
26502;SDS011;14177;51.520;6.764;2023-05-16T09:15:08;5.80;;;1.38;;
26502;SDS011;14177;51.520;6.764;2023-05-16T09:17:37;5.30;;;1.10;;
26502;SDS011;14177;51.520;6.764;2023-05-16T09:20:12;6.75;;;1.17;;
26502;SDS011;14177;51.520;6.764;2023-05-16T09:22:50;4.15;;;1.25;;
26502;SDS011;14177;51.520;6.764;2023-05-16T09:25:23;7.90;;;1.33;;
26502;SDS011;14177;51.520;6.764;2023-05-16T09:27:58;3.30;;;0.90;;
26502;SDS011;14177;51.520;6.764;2023-05-16T09:30:29;2.92;;;0.98;;
26502;SDS011;14177;51.520;6.764;2023-05-16T09:33:00;3.03;;;1.05;;
26502;SDS011;14177;51.520;6.764;2023-05-16T09:35:28;6.30;;;1.10;;
26502;SDS011;14177;51.520;6.764;2023-05-16T09:38:00;6.40;;;0.93;;
26502;SDS011;14177;51.520;6.764;2023-05-16T09:40:27;7.72;;;1.17;;
26502;SDS011;14177;51.520;6.764;2023-05-16T09:43:03;4.35;;;1.38;;
26502;SDS011;14177;51.520;6.764;2023-05-16T09:45:32;6.03;;;1.05;;
26502;SDS011;14177;51.520;6.764;2023-05-16T09:48:05;6.90;;;1.42;;
26502;SDS011;14177;51.520;6.764;2023-05-16T09:50:35;4.95;;;1.30;;
26502;SDS011;14177;51.520;6.764;2023-05-16T09:53:03;6.20;;;1.13;;
26502;SDS011;14177;51.520;6.764;2023-05-16T09:55:31;11.48;;;1.50;;
26502;SDS011;14177;51.520;6.764;2023-05-16T09:57:58;9.45;;;1.67;;
26502;SDS011;14177;51.520;6.764;2023-05-16T10:00:32;7.78;;;2.00;;
26502;SDS011;14177;51.520;6.764;2023-05-16T10:03:00;4.03;;;1.13;;
26502;SDS011;14177;51.520;6.764;2023-05-16T10:05:31;6.70;;;1.83;;
26502;SDS011;14177;51.520;6.764;2023-05-16T10:08:01;12.00;;;1.52;;
26502;SDS011;14177;51.520;6.764;2023-05-16T10:10:30;8.40;;;1.40;;
26502;SDS011;14177;51.520;6.764;2023-05-16T10:13:01;4.93;;;1.10;;
26502;SDS011;14177;51.520;6.764;2023-05-16T10:15:32;4.35;;;1.45;;
26502;SDS011;14177;51.520;6.764;2023-05-16T10:18:04;6.93;;;1.25;;
26502;SDS011;14177;51.520;6.764;2023-05-16T10:20:41;4.82;;;1.00;;
26502;SDS011;14177;51.520;6.764;2023-05-16T10:23:15;5.28;;;1.30;;
26502;SDS011;14177;51.520;6.764;2023-05-16T10:25:46;7.07;;;1.00;;
26502;SDS011;14177;51.520;6.764;2023-05-16T10:28:14;4.85;;;1.27;;
26502;SDS011;14177;51.520;6.764;2023-05-16T10:30:43;5.20;;;0.90;;
26502;SDS011;14177;51.520;6.764;2023-05-16T10:33:14;2.95;;;0.85;;
26502;SDS011;14177;51.520;6.764;2023-05-16T10:35:44;4.53;;;1.02;;
26502;SDS011;14177;51.520;6.764;2023-05-16T10:38:12;3.25;;;0.70;;
26502;SDS011;14177;51.520;6.764;2023-05-16T10:40:43;4.85;;;0.82;;
26502;SDS011;14177;51.520;6.764;2023-05-16T10:43:21;3.13;;;0.82;;
26502;SDS011;14177;51.520;6.764;2023-05-16T10:45:56;2.85;;;0.70;;
26502;SDS011;14177;51.520;6.764;2023-05-16T10:48:29;3.17;;;0.50;;
26502;SDS011;14177;51.520;6.764;2023-05-16T10:54:09;2.97;;;0.70;;
26502;SDS011;14177;51.520;6.764;2023-05-16T10:56:40;1.73;;;0.40;;
26502;SDS011;14177;51.520;6.764;2023-05-16T10:59:24;2.42;;;0.50;;
26502;SDS011;14177;51.520;6.764;2023-05-16T11:01:54;1.50;;;0.50;;
26502;SDS011;14177;51.520;6.764;2023-05-16T11:04:22;2.92;;;0.50;;
26502;SDS011;14177;51.520;6.764;2023-05-16T11:07:19;3.80;;;0.50;;
26502;SDS011;14177;51.520;6.764;2023-05-16T11:09:52;1.85;;;0.47;;
26502;SDS011;14177;51.520;6.764;2023-05-16T11:12:48;1.85;;;0.60;;
26502;SDS011;14177;51.520;6.764;2023-05-16T11:15:24;1.77;;;0.55;;
26502;SDS011;14177;51.520;6.764;2023-05-16T11:18:07;1.83;;;0.47;;
26502;SDS011;14177;51.520;6.764;2023-05-16T11:20:41;2.30;;;0.52;;
26502;SDS011;14177;51.520;6.764;2023-05-16T11:25:42;3.53;;;0.70;;
26502;SDS011;14177;51.520;6.764;2023-05-16T11:28:12;2.53;;;0.85;;
26502;SDS011;14177;51.520;6.764;2023-05-16T11:30:46;2.08;;;0.70;;
26502;SDS011;14177;51.520;6.764;2023-05-16T11:33:22;1.65;;;0.60;;
26502;SDS011;14177;51.520;6.764;2023-05-16T11:36:05;2.22;;;0.50;;
26502;SDS011;14177;51.520;6.764;2023-05-16T11:38:38;5.45;;;0.95;;
26502;SDS011;14177;51.520;6.764;2023-05-16T11:41:11;1.77;;;0.70;;
26502;SDS011;14177;51.520;6.764;2023-05-16T11:43:43;4.15;;;0.57;;
26502;SDS011;14177;51.520;6.764;2023-05-16T11:46:13;2.90;;;0.75;;
26502;SDS011;14177;51.520;6.764;2023-05-16T11:48:43;4.05;;;0.70;;
26502;SDS011;14177;51.520;6.764;2023-05-16T11:51:16;2.22;;;0.60;;
26502;SDS011;14177;51.520;6.764;2023-05-16T11:53:47;3.20;;;0.60;;
26502;SDS011;14177;51.520;6.764;2023-05-16T11:56:16;2.17;;;0.60;;
26502;SDS011;14177;51.520;6.764;2023-05-16T11:58:58;3.70;;;0.52;;
26502;SDS011;14177;51.520;6.764;2023-05-16T12:01:33;3.55;;;0.70;;
26502;SDS011;14177;51.520;6.764;2023-05-16T12:04:28;2.53;;;0.47;;
26502;SDS011;14177;51.520;6.764;2023-05-16T12:07:08;1.75;;;0.55;;
26502;SDS011;14177;51.520;6.764;2023-05-16T12:10:10;1.50;;;0.45;;
26502;SDS011;14177;51.520;6.764;2023-05-16T12:13:36;0.90;;;0.52;;
26502;SDS011;14177;51.520;6.764;2023-05-16T12:16:08;2.13;;;0.70;;
26502;SDS011;14177;51.520;6.764;2023-05-16T12:18:42;2.85;;;0.90;;
26502;SDS011;14177;51.520;6.764;2023-05-16T12:21:37;5.07;;;1.23;;
26502;SDS011;14177;51.520;6.764;2023-05-16T12:24:12;7.22;;;0.88;;
26502;SDS011;14177;51.520;6.764;2023-05-16T12:26:47;1.95;;;0.40;;
26502;SDS011;14177;51.520;6.764;2023-05-16T12:29:37;2.47;;;0.63;;
26502;SDS011;14177;51.520;6.764;2023-05-16T12:32:35;1.65;;;0.63;;
26502;SDS011;14177;51.520;6.764;2023-05-16T12:35:33;1.85;;;0.32;;
26502;SDS011;14177;51.520;6.764;2023-05-16T12:38:15;2.17;;;0.63;;
26502;SDS011;14177;51.520;6.764;2023-05-16T12:42:10;1.60;;;0.50;;
26502;SDS011;14177;51.520;6.764;2023-05-16T12:45:47;2.85;;;0.50;;
26502;SDS011;14177;51.520;6.764;2023-05-16T12:48:40;1.55;;;0.50;;
26502;SDS011;14177;51.520;6.764;2023-05-16T12:52:06;6.10;;;0.50;;
26502;SDS011;14177;51.520;6.764;2023-05-16T12:54:50;1.67;;;0.60;;
26502;SDS011;14177;51.520;6.764;2023-05-16T12:57:24;2.13;;;0.60;;
26502;SDS011;14177;51.520;6.764;2023-05-16T13:00:01;3.20;;;0.60;;
26502;SDS011;14177;51.520;6.764;2023-05-16T13:02:28;2.75;;;0.85;;
26502;SDS011;14177;51.520;6.764;2023-05-16T13:04:55;2.97;;;0.80;;
26502;SDS011;14177;51.520;6.764;2023-05-16T13:07:22;1.42;;;0.52;;
26502;SDS011;14177;51.520;6.764;2023-05-16T13:09:49;4.47;;;0.98;;
26502;SDS011;14177;51.520;6.764;2023-05-16T13:12:17;3.60;;;0.32;;
26502;SDS011;14177;51.520;6.764;2023-05-16T13:14:44;2.42;;;0.65;;
26502;SDS011;14177;51.520;6.764;2023-05-16T13:17:11;2.60;;;0.70;;
26502;SDS011;14177;51.520;6.764;2023-05-16T13:19:38;3.80;;;0.73;;
26502;SDS011;14177;51.520;6.764;2023-05-16T13:22:05;5.57;;;1.00;;
26502;SDS011;14177;51.520;6.764;2023-05-16T13:24:32;3.42;;;0.60;;
26502;SDS011;14177;51.520;6.764;2023-05-16T13:26:59;4.38;;;0.70;;
26502;SDS011;14177;51.520;6.764;2023-05-16T13:29:26;3.45;;;0.70;;
26502;SDS011;14177;51.520;6.764;2023-05-16T13:31:53;3.25;;;0.70;;
26502;SDS011;14177;51.520;6.764;2023-05-16T13:34:20;2.65;;;0.70;;
26502;SDS011;14177;51.520;6.764;2023-05-16T13:36:47;4.47;;;0.70;;
26502;SDS011;14177;51.520;6.764;2023-05-16T13:39:20;2.85;;;0.80;;
26502;SDS011;14177;51.520;6.764;2023-05-16T13:41:47;2.90;;;1.08;;
26502;SDS011;14177;51.520;6.764;2023-05-16T13:44:15;3.53;;;0.98;;
26502;SDS011;14177;51.520;6.764;2023-05-16T13:46:42;4.97;;;0.98;;
26502;SDS011;14177;51.520;6.764;2023-05-16T13:49:09;6.72;;;0.88;;
26502;SDS011;14177;51.520;6.764;2023-05-16T13:51:36;4.32;;;1.00;;
26502;SDS011;14177;51.520;6.764;2023-05-16T13:54:03;2.95;;;0.73;;
26502;SDS011;14177;51.520;6.764;2023-05-16T13:56:30;3.00;;;0.68;;
26502;SDS011;14177;51.520;6.764;2023-05-16T13:58:57;2.83;;;1.02;;
26502;SDS011;14177;51.520;6.764;2023-05-16T14:01:32;4.70;;;1.33;;
26502;SDS011;14177;51.520;6.764;2023-05-16T14:03:59;5.85;;;1.00;;
26502;SDS011;14177;51.520;6.764;2023-05-16T14:06:26;5.07;;;1.05;;
26502;SDS011;14177;51.520;6.764;2023-05-16T14:08:54;3.35;;;0.90;;
26502;SDS011;14177;51.520;6.764;2023-05-16T14:11:21;6.55;;;1.30;;
26502;SDS011;14177;51.520;6.764;2023-05-16T14:13:55;4.38;;;1.10;;
26502;SDS011;14177;51.520;6.764;2023-05-16T14:16:23;2.33;;;0.95;;
26502;SDS011;14177;51.520;6.764;2023-05-16T14:18:50;2.05;;;0.93;;
26502;SDS011;14177;51.520;6.764;2023-05-16T14:21:17;7.40;;;0.98;;
26502;SDS011;14177;51.520;6.764;2023-05-16T14:23:44;5.90;;;1.30;;
26502;SDS011;14177;51.520;6.764;2023-05-16T14:26:11;6.00;;;0.95;;
26502;SDS011;14177;51.520;6.764;2023-05-16T14:28:38;3.60;;;0.80;;
26502;SDS011;14177;51.520;6.764;2023-05-16T14:31:06;6.25;;;0.85;;
26502;SDS011;14177;51.520;6.764;2023-05-16T14:33:33;4.97;;;1.05;;
26502;SDS011;14177;51.520;6.764;2023-05-16T14:36:00;5.55;;;1.23;;
26502;SDS011;14177;51.520;6.764;2023-05-16T14:38:27;2.67;;;1.02;;
26502;SDS011;14177;51.520;6.764;2023-05-16T14:40:54;3.63;;;1.40;;
26502;SDS011;14177;51.520;6.764;2023-05-16T14:43:21;4.13;;;1.02;;
26502;SDS011;14177;51.520;6.764;2023-05-16T14:45:48;6.38;;;1.20;;
26502;SDS011;14177;51.520;6.764;2023-05-16T14:48:15;3.60;;;1.30;;
26502;SDS011;14177;51.520;6.764;2023-05-16T14:50:42;2.95;;;1.13;;
26502;SDS011;14177;51.520;6.764;2023-05-16T14:53:09;6.85;;;0.98;;
26502;SDS011;14177;51.520;6.764;2023-05-16T14:55:36;4.45;;;1.13;;
26502;SDS011;14177;51.520;6.764;2023-05-16T14:58:04;5.85;;;1.40;;
26502;SDS011;14177;51.520;6.764;2023-05-16T15:00:31;3.67;;;0.98;;
26502;SDS011;14177;51.520;6.764;2023-05-16T15:02:58;4.95;;;1.35;;
26502;SDS011;14177;51.520;6.764;2023-05-16T15:05:25;7.25;;;1.25;;
26502;SDS011;14177;51.520;6.764;2023-05-16T15:07:54;5.25;;;1.20;;
26502;SDS011;14177;51.520;6.764;2023-05-16T15:10:21;3.38;;;1.35;;
26502;SDS011;14177;51.520;6.764;2023-05-16T15:12:48;4.75;;;1.20;;
26502;SDS011;14177;51.520;6.764;2023-05-16T15:15:15;6.13;;;1.23;;
26502;SDS011;14177;51.520;6.764;2023-05-16T15:17:42;4.47;;;1.48;;
26502;SDS011;14177;51.520;6.764;2023-05-16T15:20:10;4.88;;;1.08;;
26502;SDS011;14177;51.520;6.764;2023-05-16T15:22:38;4.32;;;1.27;;
26502;SDS011;14177;51.520;6.764;2023-05-16T15:25:06;18.63;;;1.45;;
26502;SDS011;14177;51.520;6.764;2023-05-16T15:27:36;5.35;;;1.20;;
26502;SDS011;14177;51.520;6.764;2023-05-16T15:30:03;2.30;;;0.80;;
26502;SDS011;14177;51.520;6.764;2023-05-16T15:32:31;7.03;;;1.23;;
26502;SDS011;14177;51.520;6.764;2023-05-16T15:34:58;8.95;;;1.40;;
26502;SDS011;14177;51.520;6.764;2023-05-16T15:37:25;2.88;;;1.00;;
26502;SDS011;14177;51.520;6.764;2023-05-16T15:39:52;7.03;;;1.40;;
26502;SDS011;14177;51.520;6.764;2023-05-16T15:42:19;6.20;;;1.05;;
26502;SDS011;14177;51.520;6.764;2023-05-16T15:44:46;8.10;;;1.52;;
26502;SDS011;14177;51.520;6.764;2023-05-16T15:47:13;9.02;;;1.13;;
26502;SDS011;14177;51.520;6.764;2023-05-16T15:49:41;4.13;;;1.10;;
26502;SDS011;14177;51.520;6.764;2023-05-16T15:52:08;7.10;;;1.33;;
26502;SDS011;14177;51.520;6.764;2023-05-16T15:54:35;3.88;;;1.50;;
26502;SDS011;14177;51.520;6.764;2023-05-16T15:57:02;4.95;;;1.67;;
26502;SDS011;14177;51.520;6.764;2023-05-16T15:59:29;3.95;;;1.63;;
26502;SDS011;14177;51.520;6.764;2023-05-16T16:01:56;3.63;;;1.27;;
26502;SDS011;14177;51.520;6.764;2023-05-16T16:04:23;3.47;;;1.20;;
26502;SDS011;14177;51.520;6.764;2023-05-16T16:06:50;7.60;;;1.80;;
26502;SDS011;14177;51.520;6.764;2023-05-16T16:09:17;5.65;;;1.98;;
26502;SDS011;14177;51.520;6.764;2023-05-16T16:11:46;3.35;;;1.30;;
26502;SDS011;14177;51.520;6.764;2023-05-16T16:14:16;3.22;;;1.40;;
26502;SDS011;14177;51.520;6.764;2023-05-16T16:16:44;6.93;;;1.20;;
26502;SDS011;14177;51.520;6.764;2023-05-16T16:19:18;4.88;;;1.60;;
26502;SDS011;14177;51.520;6.764;2023-05-16T16:22:18;5.00;;;1.60;;
26502;SDS011;14177;51.520;6.764;2023-05-16T16:25:25;3.47;;;1.13;;